sensor_id;sensor_type;location;lat;lon;timestamp;pressure;altitude;pressure_sealevel;temperature;humidity
61961;BME280;47923;42.506;24.192;2023-04-10T00:00:20;95573.97;;;5.30;77.55
61961;BME280;47923;42.506;24.192;2023-04-10T00:02:46;95605.84;;;5.52;76.57
61961;BME280;47923;42.506;24.192;2023-04-10T00:05:12;95678.22;;;5.99;74.76
61961;BME280;47923;42.506;24.192;2023-04-10T00:07:37;95619.84;;;5.66;75.91
61961;BME280;47923;42.506;24.192;2023-04-10T00:10:03;95661.53;;;5.85;76.91
61961;BME280;47923;42.506;24.192;2023-04-10T00:12:29;95658.47;;;6.03;76.10
61961;BME280;47923;42.506;24.192;2023-04-10T00:14:54;95620.75;;;5.70;76.61
61961;BME280;47923;42.506;24.192;2023-04-10T00:17:20;95649.81;;;5.98;76.70
61961;BME280;47923;42.506;24.192;2023-04-10T00:19:45;95652.06;;;5.96;76.18
61961;BME280;47923;42.506;24.192;2023-04-10T00:22:11;95620.91;;;5.74;75.70
61961;BME280;47923;42.506;24.192;2023-04-10T00:24:36;95642.75;;;5.93;77.03
61961;BME280;47923;42.506;24.192;2023-04-10T00:27:02;95466.09;;;4.74;77.86
61961;BME280;47923;42.506;24.192;2023-04-10T00:29:27;95644.81;;;5.88;75.20
61961;BME280;47923;42.506;24.192;2023-04-10T00:31:56;95611.91;;;5.70;77.60
61961;BME280;47923;42.506;24.192;2023-04-10T00:34:22;95631.69;;;5.86;79.87
61961;BME280;47923;42.506;24.192;2023-04-10T00:36:48;95600.91;;;5.63;79.40
61961;BME280;47923;42.506;24.192;2023-04-10T00:39:13;95529.69;;;5.23;78.82
61961;BME280;47923;42.506;24.192;2023-04-10T00:41:39;95626.38;;;5.77;79.24
61961;BME280;47923;42.506;24.192;2023-04-10T00:44:05;95627.50;;;5.76;79.36
61961;BME280;47923;42.506;24.192;2023-04-10T00:46:30;95599.69;;;5.60;78.60
61961;BME280;47923;42.506;24.192;2023-04-10T00:48:56;95617.56;;;5.77;78.47
61961;BME280;47923;42.506;24.192;2023-04-10T00:51:22;95614.88;;;5.77;77.48
61961;BME280;47923;42.506;24.192;2023-04-10T00:53:51;95597.00;;;5.60;77.70
61961;BME280;47923;42.506;24.192;2023-04-10T00:56:18;95598.56;;;5.61;77.66
61961;BME280;47923;42.506;24.192;2023-04-10T00:58:43;95617.59;;;5.68;78.79
61961;BME280;47923;42.506;24.192;2023-04-10T01:01:11;95604.41;;;5.54;79.04
61961;BME280;47923;42.506;24.192;2023-04-10T01:03:38;95612.28;;;5.60;78.83
61961;BME280;47923;42.506;24.192;2023-04-10T01:06:25;95611.81;;;5.58;78.54
61961;BME280;47923;42.506;24.192;2023-04-10T01:15:12;95559.78;;;5.29;80.19
61961;BME280;47923;42.506;24.192;2023-04-10T01:20:21;95496.91;;;4.88;79.77
61961;BME280;47923;42.506;24.192;2023-04-10T01:23:11;95575.03;;;5.28;80.07
61961;BME280;47923;42.506;24.192;2023-04-10T01:26:01;95598.34;;;5.37;80.50
61961;BME280;47923;42.506;24.192;2023-04-10T01:31:16;95568.97;;;5.11;81.79
61961;BME280;47923;42.506;24.192;2023-04-10T01:33:49;95591.97;;;5.12;82.87
61961;BME280;47923;42.506;24.192;2023-04-10T01:36:21;95516.03;;;4.52;83.50
61961;BME280;47923;42.506;24.192;2023-04-10T01:38:49;95552.09;;;4.63;84.12
61961;BME280;47923;42.506;24.192;2023-04-10T01:41:18;95590.16;;;4.78;84.47
61961;BME280;47923;42.506;24.192;2023-04-10T01:43:48;95597.06;;;4.70;85.86
61961;BME280;47923;42.506;24.192;2023-04-10T01:46:15;95530.06;;;4.23;86.05
61961;BME280;47923;42.506;24.192;2023-04-10T01:48:42;95591.28;;;4.33;86.16
61961;BME280;47923;42.506;24.192;2023-04-10T01:51:09;95517.19;;;3.99;84.64
61961;BME280;47923;42.506;24.192;2023-04-10T01:53:35;95585.44;;;4.40;84.80
61961;BME280;47923;42.506;24.192;2023-04-10T01:56:01;95565.63;;;4.24;85.45
61961;BME280;47923;42.506;24.192;2023-04-10T01:58:27;95410.09;;;3.18;85.83
61961;BME280;47923;42.506;24.192;2023-04-10T02:00:53;95580.88;;;4.23;86.08
61961;BME280;47923;42.506;24.192;2023-04-10T02:03:18;95529.59;;;3.69;87.32
61961;BME280;47923;42.506;24.192;2023-04-10T02:08:36;95544.84;;;3.86;87.11
61961;BME280;47923;42.506;24.192;2023-04-10T02:11:12;95583.09;;;4.12;87.38
61961;BME280;47923;42.506;24.192;2023-04-10T02:13:40;95599.59;;;4.06;86.89
61961;BME280;47923;42.506;24.192;2023-04-10T02:16:06;95102.94;;;0.79;86.27
61961;BME280;47923;42.506;24.192;2023-04-10T02:18:34;95575.47;;;3.80;87.20
61961;BME280;47923;42.506;24.192;2023-04-10T02:21:01;95579.56;;;3.69;87.64
61961;BME280;47923;42.506;24.192;2023-04-10T02:23:26;95578.72;;;3.59;87.19
61961;BME280;47923;42.506;24.192;2023-04-10T02:25:52;95515.56;;;3.07;86.87
61961;BME280;47923;42.506;24.192;2023-04-10T02:28:17;95569.69;;;3.29;87.58
61961;BME280;47923;42.506;24.192;2023-04-10T02:30:43;95577.06;;;3.24;88.42
61961;BME280;47923;42.506;24.192;2023-04-10T02:33:08;95515.25;;;2.68;88.05
61961;BME280;47923;42.506;24.192;2023-04-10T02:35:36;95550.06;;;2.94;88.39
61961;BME280;47923;42.506;24.192;2023-04-10T02:38:02;95499.31;;;2.55;87.76
61961;BME280;47923;42.506;24.192;2023-04-10T02:40:27;95350.91;;;1.57;88.49
61961;BME280;47923;42.506;24.192;2023-04-10T02:42:53;95531.53;;;2.58;89.27
61961;BME280;47923;42.506;24.192;2023-04-10T02:45:18;95574.19;;;2.81;89.12
61961;BME280;47923;42.506;24.192;2023-04-10T02:47:44;95345.38;;;1.31;89.01
61961;BME280;47923;42.506;24.192;2023-04-10T02:50:09;95483.63;;;2.22;89.38
61961;BME280;47923;42.506;24.192;2023-04-10T02:52:35;95572.53;;;2.71;89.39
61961;BME280;47923;42.506;24.192;2023-04-10T02:55:01;95161.91;;;0.00;89.63
61961;BME280;47923;42.506;24.192;2023-04-10T02:57:26;95572.06;;;2.69;90.42
61961;BME280;47923;42.506;24.192;2023-04-10T02:59:52;95509.59;;;2.39;90.01
61961;BME280;47923;42.506;24.192;2023-04-10T03:02:19;95578.09;;;2.83;88.91
61961;BME280;47923;42.506;24.192;2023-04-10T03:04:44;95569.31;;;2.83;88.33
61961;BME280;47923;42.506;24.192;2023-04-10T03:07:10;95513.88;;;2.48;88.55
61961;BME280;47923;42.506;24.192;2023-04-10T03:09:36;95533.25;;;2.63;87.80
61961;BME280;47923;42.506;24.192;2023-04-10T03:12:01;95588.38;;;2.98;88.18
61961;BME280;47923;42.506;24.192;2023-04-10T03:14:27;95577.28;;;3.05;87.69
61961;BME280;47923;42.506;24.192;2023-04-10T03:16:53;95578.72;;;3.11;87.38
61961;BME280;47923;42.506;24.192;2023-04-10T03:19:18;95562.16;;;3.00;86.92
61961;BME280;47923;42.506;24.192;2023-04-10T03:21:47;95487.13;;;2.62;86.79
61961;BME280;47923;42.506;24.192;2023-04-10T03:24:12;95587.59;;;3.29;86.03
61961;BME280;47923;42.506;24.192;2023-04-10T03:26:38;95579.44;;;3.34;85.43
61961;BME280;47923;42.506;24.192;2023-04-10T03:29:03;95437.59;;;2.39;84.84
61961;BME280;47923;42.506;24.192;2023-04-10T03:31:29;95352.72;;;2.01;84.17
61961;BME280;47923;42.506;24.192;2023-04-10T03:33:55;95503.63;;;3.04;85.44
61961;BME280;47923;42.506;24.192;2023-04-10T03:36:20;95489.47;;;2.95;85.34
61961;BME280;47923;42.506;24.192;2023-04-10T03:38:46;95571.47;;;3.51;85.41
61961;BME280;47923;42.506;24.192;2023-04-10T03:41:11;95531.03;;;3.27;85.24
61961;BME280;47923;42.506;24.192;2023-04-10T03:43:38;95558.88;;;3.43;85.66
61961;BME280;47923;42.506;24.192;2023-04-10T03:46:04;95532.59;;;3.28;85.84
61961;BME280;47923;42.506;24.192;2023-04-10T03:48:30;95577.34;;;3.62;85.37
61961;BME280;47923;42.506;24.192;2023-04-10T03:50:57;95507.59;;;3.15;85.57
61961;BME280;47923;42.506;24.192;2023-04-10T03:53:22;95489.06;;;3.10;85.43
61961;BME280;47923;42.506;24.192;2023-04-10T03:55:48;95578.59;;;3.73;84.70
61961;BME280;47923;42.506;24.192;2023-04-10T03:58:14;95573.75;;;3.75;85.52
61961;BME280;47923;42.506;24.192;2023-04-10T04:00:42;95396.13;;;2.64;86.29
61961;BME280;47923;42.506;24.192;2023-04-10T04:03:07;95521.19;;;3.45;86.21
61961;BME280;47923;42.506;24.192;2023-04-10T04:05:33;95464.25;;;3.10;86.00
61961;BME280;47923;42.506;24.192;2023-04-10T04:07:58;95504.03;;;3.37;86.68
61961;BME280;47923;42.506;24.192;2023-04-10T04:10:24;95575.69;;;3.92;84.38
61961;BME280;47923;42.506;24.192;2023-04-10T04:12:49;95577.09;;;3.98;83.92
61961;BME280;47923;42.506;24.192;2023-04-10T04:15:15;95582.00;;;4.05;84.96
61961;BME280;47923;42.506;24.192;2023-04-10T04:17:42;95582.13;;;4.08;84.92
61961;BME280;47923;42.506;24.192;2023-04-10T04:20:08;95466.19;;;3.35;83.43
61961;BME280;47923;42.506;24.192;2023-04-10T04:22:33;95581.34;;;4.16;83.45
61961;BME280;47923;42.506;24.192;2023-04-10T04:24:59;95579.63;;;4.21;83.33
61961;BME280;47923;42.506;24.192;2023-04-10T04:27:24;95581.66;;;4.24;84.00
61961;BME280;47923;42.506;24.192;2023-04-10T04:29:50;95577.75;;;4.30;82.79
61961;BME280;47923;42.506;24.192;2023-04-10T04:32:15;95586.72;;;4.34;82.96
61961;BME280;47923;42.506;24.192;2023-04-10T04:34:41;95586.56;;;4.39;83.17
61961;BME280;47923;42.506;24.192;2023-04-10T04:37:06;95565.00;;;4.27;83.11
61961;BME280;47923;42.506;24.192;2023-04-10T04:39:34;95582.28;;;4.47;83.38
61961;BME280;47923;42.506;24.192;2023-04-10T04:42:00;95576.78;;;4.52;83.88
61961;BME280;47923;42.506;24.192;2023-04-10T04:44:25;95591.13;;;4.56;82.53
61961;BME280;47923;42.506;24.192;2023-04-10T04:46:51;95588.59;;;4.59;82.27
61961;BME280;47923;42.506;24.192;2023-04-10T04:49:16;95581.53;;;4.63;81.12
61961;BME280;47923;42.506;24.192;2023-04-10T04:51:42;95469.06;;;3.99;81.26
61961;BME280;47923;42.506;24.192;2023-04-10T04:54:07;95580.06;;;4.75;82.21
61961;BME280;47923;42.506;24.192;2023-04-10T04:56:32;95358.75;;;3.38;79.43
61961;BME280;47923;42.506;24.192;2023-04-10T04:58:58;95502.22;;;4.33;80.07
61961;BME280;47923;42.506;24.192;2023-04-10T05:01:23;95541.97;;;4.69;79.92
61961;BME280;47923;42.506;24.192;2023-04-10T05:03:49;95453.63;;;4.22;80.09
61961;BME280;47923;42.506;24.192;2023-04-10T05:06:15;95474.81;;;4.44;78.97
61961;BME280;47923;42.506;24.192;2023-04-10T05:08:43;95596.66;;;5.23;78.29
61961;BME280;47923;42.506;24.192;2023-04-10T05:11:08;95592.06;;;5.33;77.47
61961;BME280;47923;42.506;24.192;2023-04-10T05:13:33;95368.91;;;3.97;77.11
61961;BME280;47923;42.506;24.192;2023-04-10T05:15:59;95596.06;;;5.56;76.81
61961;BME280;47923;42.506;24.192;2023-04-10T05:18:25;95504.69;;;5.11;76.85
61961;BME280;47923;42.506;24.192;2023-04-10T05:20:50;95375.56;;;4.37;76.35
61961;BME280;47923;42.506;24.192;2023-04-10T05:23:16;95552.84;;;5.58;78.15
61961;BME280;47923;42.506;24.192;2023-04-10T05:25:41;95595.47;;;5.80;78.00
61961;BME280;47923;42.506;24.192;2023-04-10T05:28:07;95498.97;;;5.21;78.17
61961;BME280;47923;42.506;24.192;2023-04-10T05:30:32;95589.25;;;5.97;77.90
61961;BME280;47923;42.506;24.192;2023-04-10T05:32:58;95595.81;;;6.08;77.42
61961;BME280;47923;42.506;24.192;2023-04-10T05:35:23;95593.66;;;6.22;76.11
61961;BME280;47923;42.506;24.192;2023-04-10T05:37:49;95599.75;;;6.31;75.84
61961;BME280;47923;42.506;24.192;2023-04-10T05:40:14;95605.09;;;6.52;75.08
61961;BME280;47923;42.506;24.192;2023-04-10T05:42:39;95601.97;;;6.71;73.93
61961;BME280;47923;42.506;24.192;2023-04-10T05:45:05;95597.44;;;6.84;73.20
61961;BME280;47923;42.506;24.192;2023-04-10T05:47:31;95497.22;;;6.26;72.91
61961;BME280;47923;42.506;24.192;2023-04-10T05:49:56;95522.50;;;6.58;72.48
61961;BME280;47923;42.506;24.192;2023-04-10T05:52:22;95597.84;;;7.19;71.06
61961;BME280;47923;42.506;24.192;2023-04-10T05:54:47;95584.19;;;7.12;70.60
61961;BME280;47923;42.506;24.192;2023-04-10T05:57:13;95314.41;;;5.49;69.92
61961;BME280;47923;42.506;24.192;2023-04-10T05:59:38;95542.31;;;6.99;70.34
61961;BME280;47923;42.506;24.192;2023-04-10T06:02:04;95545.03;;;7.23;69.15
61961;BME280;47923;42.506;24.192;2023-04-10T06:04:30;95606.00;;;7.92;68.87
61961;BME280;47923;42.506;24.192;2023-04-10T06:06:55;95373.41;;;6.73;67.12
61961;BME280;47923;42.506;24.192;2023-04-10T06:09:22;95404.44;;;7.07;66.27
61961;BME280;47923;42.506;24.192;2023-04-10T06:11:47;95399.84;;;7.07;65.47
61961;BME280;47923;42.506;24.192;2023-04-10T06:14:13;95552.19;;;7.92;65.81
61961;BME280;47923;42.506;24.192;2023-04-10T06:16:38;95591.84;;;8.08;66.34
61961;BME280;47923;42.506;24.192;2023-04-10T06:19:06;95533.63;;;7.63;66.13
61961;BME280;47923;42.506;24.192;2023-04-10T06:21:31;95503.28;;;7.50;66.53
61961;BME280;47923;42.506;24.192;2023-04-10T06:23:57;95598.44;;;8.47;66.07
61961;BME280;47923;42.506;24.192;2023-04-10T06:26:23;95156.25;;;5.82;63.98
61961;BME280;47923;42.506;24.192;2023-04-10T06:28:50;95395.53;;;7.43;64.74
61961;BME280;47923;42.506;24.192;2023-04-10T06:31:18;95441.97;;;7.68;64.17
61961;BME280;47923;42.506;24.192;2023-04-10T06:33:44;95541.66;;;8.52;64.39
61961;BME280;47923;42.506;24.192;2023-04-10T06:36:09;95465.75;;;8.06;64.09
61961;BME280;47923;42.506;24.192;2023-04-10T06:38:35;95492.84;;;8.13;64.22
61961;BME280;47923;42.506;24.192;2023-04-10T06:41:03;95485.91;;;8.12;64.50
61961;BME280;47923;42.506;24.192;2023-04-10T06:43:29;95540.28;;;8.58;63.86
61961;BME280;47923;42.506;24.192;2023-04-10T06:45:55;95592.97;;;8.99;62.46
61961;BME280;47923;42.506;24.192;2023-04-10T06:48:21;95590.72;;;9.01;62.14
61961;BME280;47923;42.506;24.192;2023-04-10T06:50:46;95595.81;;;8.91;62.34
61961;BME280;47923;42.506;24.192;2023-04-10T06:53:15;95596.03;;;8.98;62.81
61961;BME280;47923;42.506;24.192;2023-04-10T06:55:40;95547.31;;;8.75;62.69
61961;BME280;47923;42.506;24.192;2023-04-10T06:58:06;95297.34;;;7.33;62.35
61961;BME280;47923;42.506;24.192;2023-04-10T07:00:31;95604.09;;;9.26;62.02
61961;BME280;47923;42.506;24.192;2023-04-10T07:02:56;95609.56;;;9.29;62.17
61961;BME280;47923;42.506;24.192;2023-04-10T07:05:22;95541.19;;;9.06;61.79
61961;BME280;47923;42.506;24.192;2023-04-10T07:07:48;95595.50;;;9.52;60.79
61961;BME280;47923;42.506;24.192;2023-04-10T07:10:14;95571.63;;;9.38;60.58
61961;BME280;47923;42.506;24.192;2023-04-10T07:12:40;95217.63;;;6.57;60.64
61961;BME280;47923;42.506;24.192;2023-04-10T07:15:06;95598.75;;;9.13;60.97
61961;BME280;47923;42.506;24.192;2023-04-10T07:17:32;95599.72;;;9.21;61.63
61961;BME280;47923;42.506;24.192;2023-04-10T07:19:58;95603.47;;;9.32;61.27
61961;BME280;47923;42.506;24.192;2023-04-10T07:22:23;95555.34;;;9.03;61.09
61961;BME280;47923;42.506;24.192;2023-04-10T07:24:49;95605.56;;;9.39;60.60
61961;BME280;47923;42.506;24.192;2023-04-10T07:27:14;95609.94;;;9.44;60.61
61961;BME280;47923;42.506;24.192;2023-04-10T07:29:41;95605.31;;;9.44;59.99
61961;BME280;47923;42.506;24.192;2023-04-10T07:32:06;95529.78;;;8.97;60.40
61961;BME280;47923;42.506;24.192;2023-04-10T07:34:32;95591.38;;;9.26;60.05
61961;BME280;47923;42.506;24.192;2023-04-10T07:36:57;95581.44;;;9.14;60.51
61961;BME280;47923;42.506;24.192;2023-04-10T07:39:23;95490.34;;;8.61;60.98
61961;BME280;47923;42.506;24.192;2023-04-10T07:41:48;95300.50;;;7.35;60.92
61961;BME280;47923;42.506;24.192;2023-04-10T07:44:14;95190.56;;;6.62;59.76
61961;BME280;47923;42.506;24.192;2023-04-10T07:46:39;95571.19;;;9.20;59.79
61961;BME280;47923;42.506;24.192;2023-04-10T07:49:05;95429.84;;;8.42;60.41
61961;BME280;47923;42.506;24.192;2023-04-10T07:51:31;95451.13;;;8.75;59.26
61961;BME280;47923;42.506;24.192;2023-04-10T07:53:56;95558.44;;;9.64;57.91
61961;BME280;47923;42.506;24.192;2023-04-10T07:56:22;95589.88;;;10.23;56.67
61961;BME280;47923;42.506;24.192;2023-04-10T07:58:48;95416.19;;;9.46;56.65
61961;BME280;47923;42.506;24.192;2023-04-10T08:01:14;95556.94;;;10.92;55.03
61961;BME280;47923;42.506;24.192;2023-04-10T08:03:44;95420.31;;;10.94;52.50
61961;BME280;47923;42.506;24.192;2023-04-10T08:06:10;95417.50;;;11.67;50.62
61961;BME280;47923;42.506;24.192;2023-04-10T08:08:37;95593.38;;;12.99;48.83
61961;BME280;47923;42.506;24.192;2023-04-10T08:11:06;95302.19;;;10.98;49.30
61961;BME280;47923;42.506;24.192;2023-04-10T08:13:31;95540.75;;;12.40;49.04
61961;BME280;47923;42.506;24.192;2023-04-10T08:15:57;95589.50;;;12.66;48.56
61961;BME280;47923;42.506;24.192;2023-04-10T08:18:23;95380.44;;;11.14;48.20
61961;BME280;47923;42.506;24.192;2023-04-10T08:20:48;95322.97;;;10.68;49.15
61961;BME280;47923;42.506;24.192;2023-04-10T08:23:14;95526.56;;;11.90;47.11
61961;BME280;47923;42.506;24.192;2023-04-10T08:25:40;95584.84;;;12.63;47.43
61961;BME280;47923;42.506;24.192;2023-04-10T08:28:05;95591.88;;;13.02;46.83
61961;BME280;47923;42.506;24.192;2023-04-10T08:30:30;95519.38;;;12.31;42.54
61961;BME280;47923;42.506;24.192;2023-04-10T08:32:56;95323.19;;;10.82;41.75
61961;BME280;47923;42.506;24.192;2023-04-10T08:35:21;95352.00;;;10.97;42.73
61961;BME280;47923;42.506;24.192;2023-04-10T08:37:47;95586.63;;;12.26;42.36
61961;BME280;47923;42.506;24.192;2023-04-10T08:40:12;95583.03;;;12.18;43.39
61961;BME280;47923;42.506;24.192;2023-04-10T08:42:38;95519.63;;;11.93;43.09
61961;BME280;47923;42.506;24.192;2023-04-10T08:45:03;95554.50;;;11.98;43.63
61961;BME280;47923;42.506;24.192;2023-04-10T08:47:35;95366.41;;;11.05;42.49
61961;BME280;47923;42.506;24.192;2023-04-10T08:50:05;95561.47;;;12.55;41.71
61961;BME280;47923;42.506;24.192;2023-04-10T08:52:33;95544.41;;;12.51;40.98
61961;BME280;47923;42.506;24.192;2023-04-10T08:55:05;95551.41;;;12.56;40.91
61961;BME280;47923;42.506;24.192;2023-04-10T08:57:32;95550.09;;;12.42;40.77
61961;BME280;47923;42.506;24.192;2023-04-10T08:59:58;95164.66;;;9.91;41.65
61961;BME280;47923;42.506;24.192;2023-04-10T09:02:24;95542.66;;;12.09;44.19
61961;BME280;47923;42.506;24.192;2023-04-10T09:04:51;95560.41;;;11.80;46.02
61961;BME280;47923;42.506;24.192;2023-04-10T09:07:19;95544.78;;;11.47;48.04
61961;BME280;47923;42.506;24.192;2023-04-10T09:09:45;95499.94;;;11.46;47.72
61961;BME280;47923;42.506;24.192;2023-04-10T09:12:15;95543.31;;;11.99;46.99
61961;BME280;47923;42.506;24.192;2023-04-10T09:14:41;95537.72;;;12.15;46.74
61961;BME280;47923;42.506;24.192;2023-04-10T09:19:44;95537.94;;;12.93;45.76
61961;BME280;47923;42.506;24.192;2023-04-10T09:22:11;95540.44;;;12.45;45.65
61961;BME280;47923;42.506;24.192;2023-04-10T09:24:38;95536.38;;;12.28;46.79
61961;BME280;47923;42.506;24.192;2023-04-10T09:27:05;95533.94;;;12.50;46.19
61961;BME280;47923;42.506;24.192;2023-04-10T09:29:44;95463.44;;;11.86;46.36
61961;BME280;47923;42.506;24.192;2023-04-10T09:32:12;95536.75;;;12.00;47.55
61961;BME280;47923;42.506;24.192;2023-04-10T09:34:52;95544.41;;;11.95;47.75
61961;BME280;47923;42.506;24.192;2023-04-10T09:37:18;95532.19;;;11.81;47.07
61961;BME280;47923;42.506;24.192;2023-04-10T09:39:47;95528.41;;;12.12;47.04
61961;BME280;47923;42.506;24.192;2023-04-10T09:42:12;95486.53;;;11.80;46.47
61961;BME280;47923;42.506;24.192;2023-04-10T09:44:39;95456.78;;;11.53;46.95
61961;BME280;47923;42.506;24.192;2023-04-10T09:47:21;95518.16;;;11.99;46.68
61961;BME280;47923;42.506;24.192;2023-04-10T09:49:48;95520.53;;;11.77;47.79
61961;BME280;47923;42.506;24.192;2023-04-10T09:52:22;95453.63;;;12.04;46.95
61961;BME280;47923;42.506;24.192;2023-04-10T09:55:00;95521.50;;;12.18;46.63
61961;BME280;47923;42.506;24.192;2023-04-10T09:57:27;95513.47;;;11.96;46.88
61961;BME280;47923;42.506;24.192;2023-04-10T09:59:57;95467.16;;;11.51;47.43
61961;BME280;47923;42.506;24.192;2023-04-10T10:02:28;95263.75;;;10.13;47.19
61961;BME280;47923;42.506;24.192;2023-04-10T10:04:54;95517.41;;;12.02;47.34
61961;BME280;47923;42.506;24.192;2023-04-10T10:07:23;95455.97;;;11.79;46.49
61961;BME280;47923;42.506;24.192;2023-04-10T10:09:51;95513.13;;;11.74;47.59
61961;BME280;47923;42.506;24.192;2023-04-10T10:12:34;95494.09;;;11.44;48.27
61961;BME280;47923;42.506;24.192;2023-04-10T10:20:19;95432.06;;;11.55;46.14
61961;BME280;47923;42.506;24.192;2023-04-10T10:22:48;95182.72;;;10.10;45.61
61961;BME280;47923;42.506;24.192;2023-04-10T10:25:15;95512.78;;;12.62;45.88
61961;BME280;47923;42.506;24.192;2023-04-10T10:27:40;95515.91;;;12.64;44.67
61961;BME280;47923;42.506;24.192;2023-04-10T10:30:08;95512.81;;;12.99;44.93
61961;BME280;47923;42.506;24.192;2023-04-10T10:32:34;95508.03;;;13.23;43.42
61961;BME280;47923;42.506;24.192;2023-04-10T10:35:03;95502.78;;;12.70;43.72
61961;BME280;47923;42.506;24.192;2023-04-10T10:37:29;95513.91;;;12.58;44.27
61961;BME280;47923;42.506;24.192;2023-04-10T10:40:23;95515.69;;;12.16;43.73
61961;BME280;47923;42.506;24.192;2023-04-10T10:45:29;95491.47;;;12.27;43.33
61961;BME280;47923;42.506;24.192;2023-04-10T10:47:55;95486.66;;;12.47;42.97
61961;BME280;47923;42.506;24.192;2023-04-10T10:50:21;95445.06;;;12.32;43.17
61961;BME280;47923;42.506;24.192;2023-04-10T10:52:49;95463.81;;;12.78;43.86
61961;BME280;47923;42.506;24.192;2023-04-10T10:58:07;95501.53;;;13.31;41.82
61961;BME280;47923;42.506;24.192;2023-04-10T11:05:58;95486.94;;;12.38;43.46
61961;BME280;47923;42.506;24.192;2023-04-10T11:11:03;95451.75;;;12.08;43.93
61961;BME280;47923;42.506;24.192;2023-04-10T11:13:37;95477.16;;;12.60;44.03
61961;BME280;47923;42.506;24.192;2023-04-10T11:16:04;95434.63;;;12.31;42.95
61961;BME280;47923;42.506;24.192;2023-04-10T11:31:54;95397.34;;;14.12;38.95
61961;BME280;47923;42.506;24.192;2023-04-10T11:34:19;95473.56;;;13.75;40.66
61961;BME280;47923;42.506;24.192;2023-04-10T11:36:45;95463.34;;;14.23;39.61
61961;BME280;47923;42.506;24.192;2023-04-10T11:39:12;95463.25;;;14.02;39.58
61961;BME280;47923;42.506;24.192;2023-04-10T11:41:41;95460.81;;;13.86;40.25
61961;BME280;47923;42.506;24.192;2023-04-10T11:44:09;95452.59;;;13.72;40.38
61961;BME280;47923;42.506;24.192;2023-04-10T11:46:40;95358.78;;;13.19;40.63
61961;BME280;47923;42.506;24.192;2023-04-10T11:49:07;95454.94;;;14.46;40.59
61961;BME280;47923;42.506;24.192;2023-04-10T11:51:34;95364.41;;;14.38;38.73
61961;BME280;47923;42.506;24.192;2023-04-10T11:54:07;95433.31;;;14.89;37.78
61961;BME280;47923;42.506;24.192;2023-04-10T11:56:34;95431.41;;;15.22;38.11
61961;BME280;47923;42.506;24.192;2023-04-10T11:58:59;95425.19;;;15.21;37.36
61961;BME280;47923;42.506;24.192;2023-04-10T12:01:26;95350.06;;;14.38;37.45
61961;BME280;47923;42.506;24.192;2023-04-10T12:03:52;95421.69;;;15.63;37.77
61961;BME280;47923;42.506;24.192;2023-04-10T12:06:18;95422.06;;;15.72;36.57
61961;BME280;47923;42.506;24.192;2023-04-10T12:08:47;95408.44;;;15.55;37.27
61961;BME280;47923;42.506;24.192;2023-04-10T12:11:22;95422.06;;;15.58;37.00
61961;BME280;47923;42.506;24.192;2023-04-10T12:13:52;95413.91;;;15.40;37.01
61961;BME280;47923;42.506;24.192;2023-04-10T12:16:18;95404.16;;;14.86;37.19
61961;BME280;47923;42.506;24.192;2023-04-10T12:18:44;95356.75;;;14.69;37.87
61961;BME280;47923;42.506;24.192;2023-04-10T12:21:10;95366.88;;;15.18;36.59
61961;BME280;47923;42.506;24.192;2023-04-10T12:23:37;95396.38;;;15.81;36.47
61961;BME280;47923;42.506;24.192;2023-04-10T12:28:37;95340.31;;;15.90;35.20
61961;BME280;47923;42.506;24.192;2023-04-10T12:31:03;95380.00;;;15.84;32.87
61961;BME280;47923;42.506;24.192;2023-04-10T12:33:32;95381.94;;;15.94;33.52
61961;BME280;47923;42.506;24.192;2023-04-10T12:35:57;95375.34;;;15.88;33.72
61961;BME280;47923;42.506;24.192;2023-04-10T12:38:42;95376.06;;;14.39;35.75
61961;BME280;47923;42.506;24.192;2023-04-10T12:41:10;95384.28;;;14.53;34.79
61961;BME280;47923;42.506;24.192;2023-04-10T12:43:37;95384.50;;;14.05;35.86
61961;BME280;47923;42.506;24.192;2023-04-10T12:46:03;95241.38;;;12.60;38.54
61961;BME280;47923;42.506;24.192;2023-04-10T12:48:30;95385.25;;;12.48;41.84
61961;BME280;47923;42.506;24.192;2023-04-10T12:50:56;95395.03;;;12.56;42.94
61961;BME280;47923;42.506;24.192;2023-04-10T12:53:21;95391.38;;;12.79;42.19
61961;BME280;47923;42.506;24.192;2023-04-10T12:58:25;95389.00;;;12.03;44.88
61961;BME280;47923;42.506;24.192;2023-04-10T13:01:02;95325.78;;;11.84;44.36
61961;BME280;47923;42.506;24.192;2023-04-10T13:03:28;95340.56;;;12.28;43.46
61961;BME280;47923;42.506;24.192;2023-04-10T13:05:53;95363.50;;;12.78;42.77
61961;BME280;47923;42.506;24.192;2023-04-10T13:08:20;95361.97;;;12.81;41.85
61961;BME280;47923;42.506;24.192;2023-04-10T13:10:46;95130.28;;;11.61;41.57
61961;BME280;47923;42.506;24.192;2023-04-10T13:13:12;95388.25;;;12.77;44.32
61961;BME280;47923;42.506;24.192;2023-04-10T13:15:38;95378.22;;;12.40;44.89
61961;BME280;47923;42.506;24.192;2023-04-10T13:18:05;95368.81;;;12.30;45.37
61961;BME280;47923;42.506;24.192;2023-04-10T13:20:32;95360.97;;;11.84;46.92
61961;BME280;47923;42.506;24.192;2023-04-10T13:23:04;95325.56;;;11.40;47.24
61961;BME280;47923;42.506;24.192;2023-04-10T13:25:35;95263.28;;;10.54;48.44
61961;BME280;47923;42.506;24.192;2023-04-10T13:28:01;95378.22;;;11.46;48.84
61961;BME280;47923;42.506;24.192;2023-04-10T13:30:27;95349.47;;;11.38;49.34
61961;BME280;47923;42.506;24.192;2023-04-10T13:32:53;95093.94;;;10.28;48.46
61961;BME280;47923;42.506;24.192;2023-04-10T13:35:19;95364.97;;;12.31;47.61
61961;BME280;47923;42.506;24.192;2023-04-10T13:37:44;95360.63;;;12.23;48.08
61961;BME280;47923;42.506;24.192;2023-04-10T13:40:10;95345.41;;;12.49;47.00
61961;BME280;47923;42.506;24.192;2023-04-10T13:42:36;95201.53;;;11.39;46.47
61961;BME280;47923;42.506;24.192;2023-04-10T13:45:01;95182.69;;;10.86;47.65
61961;BME280;47923;42.506;24.192;2023-04-10T13:47:27;95344.22;;;12.09;47.27